createdAt,value
2023-05-13T00:00:35.772Z,16.45
2023-05-13T00:01:35.782Z,16.43
2023-05-13T00:02:35.899Z,16.40
2023-05-13T00:03:35.993Z,16.36
2023-05-13T00:04:35.859Z,16.36
2023-05-13T00:05:35.864Z,16.36
2023-05-13T00:06:35.923Z,16.36
2023-05-13T00:07:35.944Z,16.40
2023-05-13T00:08:35.888Z,16.37
2023-05-13T00:09:35.923Z,16.34
2023-05-13T00:10:35.946Z,16.32
2023-05-13T00:11:35.990Z,16.25
2023-05-13T00:12:36.001Z,16.22
2023-05-13T00:13:35.989Z,16.22
2023-05-13T00:14:36.029Z,16.19
2023-05-13T00:15:36.016Z,16.17
2023-05-13T00:16:36.098Z,16.17
2023-05-13T00:17:36.150Z,16.12
2023-05-13T00:18:36.110Z,16.12
2023-05-13T00:19:36.087Z,16.13
2023-05-13T00:20:36.103Z,16.17
2023-05-13T00:21:36.125Z,16.15
2023-05-13T00:22:36.131Z,16.14
2023-05-13T00:23:36.152Z,16.13
2023-05-13T00:24:36.145Z,16.09
2023-05-13T00:25:36.195Z,16.06
2023-05-13T00:26:36.194Z,16.06
2023-05-13T00:27:36.193Z,16.07
2023-05-13T00:28:36.206Z,16.06
2023-05-13T00:29:36.261Z,16.06
2023-05-13T00:30:36.267Z,16.09
2023-05-13T00:31:36.325Z,16.07
2023-05-13T00:32:36.332Z,16.04
2023-05-13T00:33:36.289Z,16.02
2023-05-13T00:34:36.309Z,16.00
2023-05-13T00:35:36.299Z,16.01
2023-05-13T00:36:36.316Z,16.04
2023-05-13T00:37:36.342Z,16.04
2023-05-13T00:38:36.349Z,16.02
2023-05-13T00:39:36.339Z,16.01
2023-05-13T00:40:36.370Z,16.00
2023-05-13T00:41:36.396Z,15.98
2023-05-13T00:42:36.383Z,15.93
2023-05-13T00:43:36.405Z,15.94
2023-05-13T00:44:36.425Z,15.97
2023-05-13T00:45:36.508Z,16.00
2023-05-13T00:46:36.475Z,16.02
2023-05-13T00:47:36.480Z,15.98
2023-05-13T00:48:36.502Z,15.95
2023-05-13T00:49:36.507Z,15.96
2023-05-13T00:50:36.536Z,15.96
2023-05-13T00:51:36.546Z,15.98
2023-05-13T00:52:36.557Z,15.95
2023-05-13T00:53:36.552Z,15.96
2023-05-13T00:54:36.570Z,15.98
2023-05-13T00:55:36.596Z,15.93
2023-05-13T00:56:36.588Z,15.95
2023-05-13T00:57:36.609Z,15.95
2023-05-13T00:58:36.610Z,15.96
2023-05-13T00:59:36.627Z,15.97
2023-05-13T01:00:36.652Z,15.97
2023-05-13T01:01:36.812Z,15.94
2023-05-13T01:02:36.816Z,15.98
2023-05-13T01:03:36.749Z,16.01
2023-05-13T01:04:36.731Z,15.98
2023-05-13T01:05:36.729Z,15.96
2023-05-13T01:06:36.771Z,15.92
2023-05-13T01:07:36.764Z,15.90
2023-05-13T01:08:36.820Z,15.90
2023-05-13T01:09:36.786Z,15.89
2023-05-13T01:10:36.770Z,15.90
2023-05-13T01:11:36.767Z,15.89
2023-05-13T01:12:36.806Z,15.88
2023-05-13T01:13:36.843Z,15.87
2023-05-13T01:14:36.817Z,15.88
2023-05-13T01:15:36.835Z,15.89
2023-05-13T01:16:36.914Z,15.89
2023-05-13T01:17:36.915Z,15.89
2023-05-13T01:18:36.921Z,15.87
2023-05-13T01:19:36.887Z,15.85
2023-05-13T01:20:36.861Z,15.83
2023-05-13T01:21:36.877Z,15.83
2023-05-13T01:22:36.916Z,15.84
2023-05-13T01:23:36.890Z,15.81
2023-05-13T01:24:36.921Z,15.74
2023-05-13T01:25:36.937Z,15.75
2023-05-13T01:26:36.902Z,15.76
2023-05-13T01:27:36.913Z,15.81
2023-05-13T01:28:36.932Z,15.81
2023-05-13T01:29:36.932Z,15.85
2023-05-13T01:30:36.936Z,15.84
2023-05-13T01:31:36.987Z,15.82
2023-05-13T01:32:36.981Z,15.80
2023-05-13T01:33:36.971Z,15.81
2023-05-13T01:34:36.972Z,15.81
2023-05-13T01:35:36.992Z,15.81
2023-05-13T01:36:36.984Z,15.80
2023-05-13T01:37:37.001Z,15.82
2023-05-13T01:38:36.997Z,15.78
2023-05-13T01:39:37.001Z,15.79
2023-05-13T01:40:37.294Z,15.79
2023-05-13T01:41:37.031Z,15.77
2023-05-13T01:42:37.041Z,15.74
2023-05-13T01:43:37.063Z,15.74
2023-05-13T01:44:37.084Z,15.72
2023-05-13T01:45:37.090Z,15.69
2023-05-13T01:46:37.153Z,15.65
2023-05-13T01:47:37.132Z,15.59
2023-05-13T01:48:37.153Z,15.59
2023-05-13T01:49:37.173Z,15.61
2023-05-13T01:50:37.189Z,15.66
2023-05-13T01:51:37.207Z,15.71
2023-05-13T01:52:37.241Z,15.72
2023-05-13T01:53:37.252Z,15.68
2023-05-13T01:54:37.264Z,15.72
2023-05-13T01:55:37.274Z,15.73
2023-05-13T01:56:37.298Z,15.73
2023-05-13T01:57:37.309Z,15.73
2023-05-13T01:58:37.303Z,15.72
2023-05-13T01:59:37.331Z,15.71
2023-05-13T02:00:37.342Z,15.70
2023-05-13T02:01:37.384Z,15.69
2023-05-13T02:02:37.423Z,15.68
2023-05-13T02:03:37.547Z,15.70
2023-05-13T02:04:37.383Z,15.71
2023-05-13T02:05:37.400Z,15.71
2023-05-13T02:06:37.402Z,15.71
2023-05-13T02:07:37.426Z,15.71
2023-05-13T02:08:37.424Z,15.69
2023-05-13T02:09:37.425Z,15.72
2023-05-13T02:10:37.446Z,15.75
2023-05-13T02:11:37.461Z,15.75
2023-05-13T02:12:37.455Z,15.73
2023-05-13T02:13:37.489Z,15.72
2023-05-13T02:14:37.486Z,15.75
2023-05-13T02:15:37.491Z,15.72
2023-05-13T02:16:37.589Z,15.70
2023-05-13T02:17:37.564Z,15.72
2023-05-13T02:18:37.535Z,15.74
2023-05-13T02:19:37.618Z,15.76
2023-05-13T02:20:37.545Z,15.77
2023-05-13T02:21:37.549Z,15.78
2023-05-13T02:22:37.561Z,15.76
2023-05-13T02:23:37.584Z,15.76
2023-05-13T02:24:37.607Z,15.72
2023-05-13T02:25:37.596Z,15.69
2023-05-13T02:26:37.619Z,15.69
2023-05-13T02:27:37.632Z,15.72
2023-05-13T02:28:37.657Z,15.71
2023-05-13T02:29:38.334Z,15.70
2023-05-13T02:30:37.686Z,15.70
2023-05-13T02:31:37.723Z,15.68
2023-05-13T02:32:37.737Z,15.69
2023-05-13T02:33:37.707Z,15.69
2023-05-13T02:34:37.796Z,15.72
2023-05-13T02:35:37.739Z,15.71
2023-05-13T02:36:37.742Z,15.70
2023-05-13T02:37:37.745Z,15.73
2023-05-13T02:38:37.760Z,15.68
2023-05-13T02:39:37.761Z,15.64
2023-05-13T02:40:37.779Z,15.59
2023-05-13T02:41:37.795Z,15.61
2023-05-13T02:42:37.808Z,15.65
2023-05-13T02:43:37.833Z,15.65
2023-05-13T02:44:37.833Z,15.69
2023-05-13T02:45:37.875Z,15.71
2023-05-13T02:46:37.873Z,15.71
2023-05-13T02:47:37.906Z,15.70
2023-05-13T02:48:37.892Z,15.66
2023-05-13T02:49:37.909Z,15.67
2023-05-13T02:50:37.948Z,15.69
2023-05-13T02:51:37.940Z,15.69
2023-05-13T02:52:37.962Z,15.70
2023-05-13T02:53:37.960Z,15.69
2023-05-13T02:54:38.020Z,15.67
2023-05-13T02:55:37.975Z,15.69
2023-05-13T02:56:38.003Z,15.67
2023-05-13T02:57:38.036Z,15.66
2023-05-13T02:58:38.045Z,15.66
2023-05-13T02:59:38.051Z,15.67
2023-05-13T03:00:38.062Z,15.66
2023-05-13T03:01:38.141Z,15.67
2023-05-13T03:02:38.115Z,15.66
2023-05-13T03:03:38.192Z,15.64
2023-05-13T03:04:38.117Z,15.65
2023-05-13T03:05:38.131Z,15.67
2023-05-13T03:06:38.156Z,15.68
2023-05-13T03:07:38.212Z,15.65
2023-05-13T03:08:38.204Z,15.59
2023-05-13T03:09:38.236Z,15.59
2023-05-13T03:10:38.264Z,15.61
2023-05-13T03:11:38.308Z,15.62
2023-05-13T03:12:38.314Z,15.59
2023-05-13T03:13:38.380Z,15.53
2023-05-13T03:14:38.394Z,15.53
2023-05-13T03:15:38.423Z,15.53
2023-05-13T03:16:38.593Z,15.52
2023-05-13T03:17:38.459Z,15.47
2023-05-13T03:18:38.459Z,15.48
2023-05-13T03:19:38.455Z,15.44
2023-05-13T03:20:38.525Z,15.44
2023-05-13T03:21:38.529Z,15.43
2023-05-13T03:22:38.564Z,15.44
2023-05-13T03:23:38.627Z,15.47
2023-05-13T03:24:38.648Z,15.44
2023-05-13T03:25:38.692Z,15.46
2023-05-13T03:26:38.728Z,15.46
2023-05-13T03:27:38.767Z,15.42
2023-05-13T03:28:38.800Z,15.42
2023-05-13T03:29:38.839Z,15.44
2023-05-13T03:30:38.877Z,15.44
2023-05-13T03:31:38.923Z,15.40
2023-05-13T03:32:38.986Z,15.36
2023-05-13T03:33:38.977Z,15.36
2023-05-13T03:34:39.016Z,15.37
2023-05-13T03:35:39.050Z,15.37
2023-05-13T03:36:39.109Z,15.36
2023-05-13T03:37:39.130Z,15.36
2023-05-13T03:38:39.169Z,15.39
2023-05-13T03:39:39.205Z,15.39
2023-05-13T03:40:39.239Z,15.41
2023-05-13T03:41:39.263Z,15.42
2023-05-13T03:42:39.317Z,15.39
2023-05-13T03:43:39.322Z,15.38
2023-05-13T03:44:39.363Z,15.37
2023-05-13T03:45:39.411Z,15.34
2023-05-13T03:46:39.473Z,15.33
2023-05-13T03:47:39.551Z,15.35
2023-05-13T03:48:39.503Z,15.36
2023-05-13T03:49:39.548Z,15.38
2023-05-13T03:50:39.566Z,15.38
2023-05-13T03:51:39.624Z,15.39
2023-05-13T03:52:39.632Z,15.40
2023-05-13T03:53:39.657Z,15.38
2023-05-13T03:54:39.696Z,15.40
2023-05-13T03:55:39.721Z,15.40
2023-05-13T03:56:39.772Z,15.40
2023-05-13T03:57:39.790Z,15.39
2023-05-13T03:58:39.834Z,15.36
2023-05-13T03:59:39.847Z,15.36
2023-05-13T04:00:39.886Z,15.36
2023-05-13T04:01:39.996Z,15.38
2023-05-13T04:02:40.000Z,15.37
2023-05-13T04:03:39.980Z,15.35
2023-05-13T04:04:40.032Z,15.33
2023-05-13T04:05:40.097Z,15.36
2023-05-13T04:06:40.088Z,15.34
2023-05-13T04:07:40.137Z,15.34
2023-05-13T04:08:40.183Z,15.30
2023-05-13T04:09:40.193Z,15.30
2023-05-13T04:10:40.249Z,15.34
2023-05-13T04:11:40.299Z,15.33
2023-05-13T04:12:40.329Z,15.34
2023-05-13T04:13:40.350Z,15.32
2023-05-13T04:14:40.398Z,15.32
2023-05-13T04:15:40.445Z,15.33
2023-05-13T04:16:40.516Z,15.30
2023-05-13T04:17:40.525Z,15.33
2023-05-13T04:18:40.558Z,15.34
2023-05-13T04:19:40.555Z,15.36
2023-05-13T04:20:40.614Z,15.36
2023-05-13T04:21:40.635Z,15.37
2023-05-13T04:22:40.665Z,15.40
2023-05-13T04:23:40.696Z,15.40
2023-05-13T04:24:40.707Z,15.40
2023-05-13T04:25:40.725Z,15.40
2023-05-13T04:26:40.771Z,15.39
2023-05-13T04:27:40.809Z,15.41
2023-05-13T04:28:40.821Z,15.41
2023-05-13T04:29:40.850Z,15.43
2023-05-13T04:30:40.897Z,15.43
2023-05-13T04:31:40.966Z,15.42
2023-05-13T04:32:40.997Z,15.46
2023-05-13T04:33:40.959Z,15.44
2023-05-13T04:34:40.989Z,15.44
2023-05-13T04:35:41.011Z,15.45
2023-05-13T04:36:41.057Z,15.51
2023-05-13T04:37:41.068Z,15.51
2023-05-13T04:38:41.088Z,15.50
2023-05-13T04:39:41.098Z,15.50
2023-05-13T04:40:41.132Z,15.53
2023-05-13T04:41:41.142Z,15.57
2023-05-13T04:42:41.190Z,15.57
2023-05-13T04:43:41.189Z,15.57
2023-05-13T04:44:41.232Z,15.57
2023-05-13T04:45:41.236Z,15.59
2023-05-13T04:46:41.355Z,15.60
2023-05-13T04:47:41.297Z,15.60
2023-05-13T04:48:41.273Z,15.57
2023-05-13T04:49:41.289Z,15.58
2023-05-13T04:50:41.295Z,15.59
2023-05-13T04:51:41.311Z,15.58
2023-05-13T04:52:41.315Z,15.58
2023-05-13T04:53:41.338Z,15.60
2023-05-13T04:54:41.345Z,15.59
2023-05-13T04:55:41.363Z,15.62
2023-05-13T04:56:41.382Z,15.63
2023-05-13T04:57:41.389Z,15.64
2023-05-13T04:58:41.438Z,15.61
2023-05-13T04:59:41.420Z,15.62
2023-05-13T05:00:41.437Z,15.62
2023-05-13T05:01:41.530Z,15.62
2023-05-13T05:02:41.476Z,15.64
2023-05-13T05:03:41.551Z,15.67
2023-05-13T05:04:41.515Z,15.65
2023-05-13T05:05:41.548Z,15.67
2023-05-13T05:06:41.571Z,15.64
2023-05-13T05:07:41.583Z,15.61
2023-05-13T05:08:41.597Z,15.64
2023-05-13T05:09:41.621Z,15.63
2023-05-13T05:10:41.647Z,15.62
2023-05-13T05:11:41.652Z,15.67
2023-05-13T05:12:41.665Z,15.68
2023-05-13T05:13:41.696Z,15.71
2023-05-13T05:14:41.691Z,15.70
2023-05-13T05:15:41.730Z,15.74
2023-05-13T05:16:41.739Z,15.71
2023-05-13T05:17:41.885Z,15.72
2023-05-13T05:18:41.809Z,15.66
2023-05-13T05:19:41.771Z,15.68
2023-05-13T05:20:41.783Z,15.64
2023-05-13T05:21:41.786Z,15.70
2023-05-13T05:22:41.780Z,15.69
2023-05-13T05:23:41.790Z,15.74
2023-05-13T05:24:41.796Z,15.74
2023-05-13T05:25:41.826Z,15.73
2023-05-13T05:26:42.916Z,15.73
2023-05-13T05:27:41.813Z,15.73
2023-05-13T05:28:41.839Z,15.75
2023-05-13T05:29:41.864Z,15.81
2023-05-13T05:30:41.842Z,15.81
2023-05-13T05:31:41.961Z,15.83
2023-05-13T05:32:41.908Z,15.83
2023-05-13T05:33:41.879Z,15.82
2023-05-13T05:34:41.890Z,15.86
2023-05-13T05:35:41.911Z,15.84
2023-05-13T05:36:41.894Z,15.86
2023-05-13T05:37:41.881Z,15.85
2023-05-13T05:38:41.918Z,15.84
2023-05-13T05:39:41.939Z,15.85
2023-05-13T05:40:41.940Z,15.88
2023-05-13T05:41:41.969Z,15.88
2023-05-13T05:42:41.945Z,15.92
2023-05-13T05:43:41.984Z,15.93
2023-05-13T05:44:42.060Z,15.94
2023-05-13T05:45:42.054Z,15.97
2023-05-13T05:46:42.018Z,16.01
2023-05-13T05:47:42.081Z,16.01
2023-05-13T05:48:42.073Z,16.01
2023-05-13T05:49:42.057Z,16.05
2023-05-13T05:50:42.069Z,16.07
2023-05-13T05:51:42.080Z,16.10
2023-05-13T05:52:42.097Z,16.06
2023-05-13T05:53:42.121Z,16.06
2023-05-13T05:54:42.143Z,16.06
2023-05-13T05:55:42.114Z,16.06
2023-05-13T05:56:42.151Z,16.06
2023-05-13T05:57:42.156Z,16.06
2023-05-13T05:58:42.165Z,16.06
2023-05-13T05:59:42.161Z,16.06
2023-05-13T06:00:42.204Z,16.06
2023-05-13T06:01:42.248Z,16.04
2023-05-13T06:02:42.371Z,16.06
2023-05-13T06:03:42.357Z,16.03
2023-05-13T06:04:42.469Z,16.01
2023-05-13T06:05:42.277Z,16.05
2023-05-13T06:06:42.328Z,16.06
2023-05-13T06:07:42.314Z,16.07
2023-05-13T06:08:42.330Z,16.09
2023-05-13T06:09:42.342Z,16.08
2023-05-13T06:10:42.354Z,16.08
2023-05-13T06:11:42.385Z,16.04
2023-05-13T06:12:42.405Z,16.05
2023-05-13T06:13:42.426Z,16.08
2023-05-13T06:14:42.448Z,16.09
2023-05-13T06:15:42.488Z,16.12
2023-05-13T06:16:42.459Z,16.15
2023-05-13T06:17:42.515Z,16.17
2023-05-13T06:18:42.508Z,16.15
2023-05-13T06:19:42.507Z,16.15
2023-05-13T06:20:42.516Z,16.19
2023-05-13T06:21:42.515Z,16.20
2023-05-13T06:22:42.554Z,16.20
2023-05-13T06:23:42.557Z,16.19
2023-05-13T06:24:42.560Z,16.19
2023-05-13T06:25:42.579Z,16.21
2023-05-13T06:26:42.604Z,16.24
2023-05-13T06:27:42.610Z,16.26
2023-05-13T06:28:42.664Z,16.27
2023-05-13T06:29:42.643Z,16.26
2023-05-13T06:30:42.656Z,16.23
2023-05-13T06:31:42.702Z,16.26
2023-05-13T06:32:53.542Z,16.29
2023-05-13T06:33:43.682Z,16.29
2023-05-13T06:34:42.657Z,16.28
2023-05-13T06:35:42.652Z,16.29
2023-05-13T06:36:42.678Z,16.28
2023-05-13T06:37:42.637Z,16.26
2023-05-13T06:38:42.629Z,16.27
2023-05-13T06:39:42.649Z,16.28
2023-05-13T06:40:42.614Z,16.26
2023-05-13T06:41:42.620Z,16.24
2023-05-13T06:42:42.623Z,16.24
2023-05-13T06:43:42.598Z,16.17
2023-05-13T06:44:42.584Z,16.22
2023-05-13T06:45:42.592Z,16.26
2023-05-13T06:46:42.570Z,16.29
2023-05-13T06:47:42.634Z,16.30
2023-05-13T06:48:42.578Z,16.27
2023-05-13T06:49:42.549Z,16.25
2023-05-13T06:50:42.545Z,16.23
2023-05-13T06:51:42.554Z,16.25
2023-05-13T06:52:42.531Z,16.28
2023-05-13T06:53:42.533Z,16.31
2023-05-13T06:54:42.552Z,16.29
2023-05-13T06:55:42.536Z,16.25
2023-05-13T06:56:42.512Z,16.25
2023-05-13T06:57:43.609Z,16.26
2023-05-13T06:58:42.479Z,16.28
2023-05-13T06:59:42.538Z,16.24
2023-05-13T07:00:42.547Z,16.17
2023-05-13T07:01:42.571Z,16.20
2023-05-13T07:02:42.627Z,16.22
2023-05-13T07:03:42.625Z,16.21
2023-05-13T07:04:42.602Z,16.20
2023-05-13T07:05:42.614Z,16.23
2023-05-13T07:06:42.646Z,16.27
2023-05-13T07:07:42.638Z,16.29
2023-05-13T07:08:42.657Z,16.34
2023-05-13T07:09:42.676Z,16.38
2023-05-13T07:10:42.677Z,16.35
2023-05-13T07:11:42.688Z,16.40
2023-05-13T07:12:42.710Z,16.38
2023-05-13T07:13:42.716Z,16.35
2023-05-13T07:14:42.743Z,16.38
2023-05-13T07:15:42.753Z,16.35
2023-05-13T07:16:42.790Z,16.29
2023-05-13T07:17:42.935Z,16.27
2023-05-13T07:18:42.804Z,16.28
2023-05-13T07:19:42.804Z,16.30
2023-05-13T07:20:42.820Z,16.34
2023-05-13T07:21:42.802Z,16.37
2023-05-13T07:22:42.815Z,16.32
2023-05-13T07:23:44.631Z,16.29
2023-05-13T07:24:42.855Z,16.33
2023-05-13T07:25:42.836Z,16.32
2023-05-13T07:26:42.836Z,16.34
2023-05-13T07:27:42.853Z,16.34
2023-05-13T07:28:42.881Z,16.30
2023-05-13T07:29:42.901Z,16.32
2023-05-13T07:30:42.944Z,16.29
2023-05-13T07:31:42.926Z,16.25
2023-05-13T07:32:42.955Z,16.23
2023-05-13T07:33:42.995Z,16.26
2023-05-13T07:34:43.028Z,16.31
2023-05-13T07:35:43.048Z,16.32
2023-05-13T07:36:43.062Z,16.32
2023-05-13T07:37:43.064Z,16.33
2023-05-13T07:38:43.086Z,16.35
2023-05-13T07:39:43.091Z,16.37
2023-05-13T07:40:43.122Z,16.36
2023-05-13T07:41:43.120Z,16.38
2023-05-13T07:42:43.136Z,16.42
2023-05-13T07:43:43.165Z,16.36
2023-05-13T07:44:43.193Z,16.37
2023-05-13T07:45:43.177Z,16.39
2023-05-13T07:46:43.206Z,16.37
2023-05-13T07:47:44.585Z,16.33
2023-05-13T07:48:43.208Z,16.35
2023-05-13T07:49:43.216Z,16.39
2023-05-13T07:50:43.221Z,16.38
2023-05-13T07:51:43.298Z,16.38
2023-05-13T07:52:43.209Z,16.39
2023-05-13T07:53:43.321Z,16.41
2023-05-13T07:54:43.408Z,16.45
2023-05-13T07:55:43.436Z,16.45
2023-05-13T07:56:43.432Z,16.49
2023-05-13T07:57:43.463Z,16.50
2023-05-13T07:58:43.499Z,16.50
2023-05-13T07:59:44.764Z,16.46
2023-05-13T08:00:43.509Z,16.49
2023-05-13T08:01:43.519Z,16.45
2023-05-13T08:02:43.612Z,16.45
2023-05-13T08:03:43.676Z,16.44
2023-05-13T08:04:43.626Z,16.48
2023-05-13T08:05:43.607Z,16.49
2023-05-13T08:06:43.635Z,16.49
2023-05-13T08:07:43.658Z,16.51
2023-05-13T08:08:43.684Z,16.48
2023-05-13T08:09:43.704Z,16.51
2023-05-13T08:10:43.711Z,16.54
2023-05-13T08:11:43.742Z,16.54
2023-05-13T08:12:43.765Z,16.56
2023-05-13T08:13:43.795Z,16.53
2023-05-13T08:14:43.816Z,16.51
2023-05-13T08:15:43.821Z,16.51
2023-05-13T08:16:43.864Z,16.53
2023-05-13T08:17:43.920Z,16.54
2023-05-13T08:18:43.928Z,16.55
2023-05-13T08:19:43.914Z,16.55
2023-05-13T08:20:43.923Z,16.54
2023-05-13T08:21:43.922Z,16.55
2023-05-13T08:22:43.949Z,16.58
2023-05-13T08:23:45.989Z,16.62
2023-05-13T08:24:43.969Z,16.60
2023-05-13T08:25:44.012Z,16.65
2023-05-13T08:26:44.028Z,16.70
2023-05-13T08:27:44.001Z,16.69
2023-05-13T08:28:44.004Z,16.63
2023-05-13T08:29:44.018Z,16.60
2023-05-13T08:30:44.023Z,16.62
2023-05-13T08:31:44.073Z,16.62
2023-05-13T08:32:44.046Z,16.59
2023-05-13T08:33:44.040Z,16.61
2023-05-13T08:34:44.042Z,16.61
2023-05-13T08:35:44.850Z,16.61
2023-05-13T08:36:44.039Z,16.64
2023-05-13T08:37:44.049Z,16.66
2023-05-13T08:38:44.052Z,16.65
2023-05-13T08:39:44.063Z,16.70
2023-05-13T08:40:44.082Z,16.72
2023-05-13T08:41:44.075Z,16.77
2023-05-13T08:42:44.088Z,16.79
2023-05-13T08:43:44.113Z,16.82
2023-05-13T08:44:44.126Z,16.81
2023-05-13T08:45:44.132Z,16.85
2023-05-13T08:46:44.133Z,16.87
2023-05-13T08:47:44.215Z,16.91
2023-05-13T08:48:44.240Z,16.93
2023-05-13T08:49:44.350Z,16.93
2023-05-13T08:50:44.374Z,16.95
2023-05-13T08:51:44.436Z,16.95
2023-05-13T08:52:44.499Z,16.99
2023-05-13T08:53:44.564Z,16.98
2023-05-13T08:54:44.622Z,17.03
2023-05-13T08:55:44.660Z,17.07
2023-05-13T08:56:44.725Z,17.04
2023-05-13T08:57:44.772Z,17.08
2023-05-13T08:58:44.795Z,17.09
2023-05-13T08:59:44.831Z,17.08
2023-05-13T09:00:44.869Z,17.10
2023-05-13T09:01:44.982Z,17.08
2023-05-13T09:02:44.944Z,17.03
2023-05-13T09:03:44.969Z,17.05
2023-05-13T09:04:45.068Z,17.03
2023-05-13T09:05:45.057Z,17.00
2023-05-13T09:06:45.090Z,17.02
2023-05-13T09:07:45.113Z,17.07
2023-05-13T09:08:45.145Z,17.12
2023-05-13T09:09:45.162Z,17.13
2023-05-13T09:10:45.216Z,17.16
2023-05-13T09:11:45.244Z,17.21
2023-05-13T09:12:45.349Z,17.19
2023-05-13T09:13:45.353Z,17.20
2023-05-13T09:14:45.424Z,17.22
2023-05-13T09:15:45.497Z,17.25
2023-05-13T09:16:45.499Z,17.27
2023-05-13T09:17:45.665Z,17.27
2023-05-13T09:18:45.648Z,17.31
2023-05-13T09:19:45.717Z,17.31
2023-05-13T09:20:45.633Z,17.32
2023-05-13T09:21:45.657Z,17.34
2023-05-13T09:22:45.672Z,17.36
2023-05-13T09:23:45.717Z,17.37
2023-05-13T09:24:45.747Z,17.35
2023-05-13T09:25:45.800Z,17.36
2023-05-13T09:26:45.817Z,17.38
2023-05-13T09:27:45.842Z,17.39
2023-05-13T09:28:45.917Z,17.32
2023-05-13T09:29:45.932Z,17.34
2023-05-13T09:30:46.804Z,17.36
2023-05-13T09:31:46.107Z,17.33
2023-05-13T09:32:46.030Z,17.35
2023-05-13T09:33:46.005Z,17.44
2023-05-13T09:34:46.026Z,17.46
2023-05-13T09:35:46.037Z,17.47
2023-05-13T09:36:46.081Z,17.49
2023-05-13T09:37:46.082Z,17.48
2023-05-13T09:38:46.096Z,17.49
2023-05-13T09:39:46.114Z,17.48
2023-05-13T09:40:46.102Z,17.48
2023-05-13T09:41:46.115Z,17.54
2023-05-13T09:42:46.118Z,17.48
2023-05-13T09:43:46.109Z,17.55
2023-05-13T09:44:46.122Z,17.60
2023-05-13T09:45:46.115Z,17.67
2023-05-13T09:46:46.172Z,17.68
2023-05-13T09:47:46.128Z,17.72
2023-05-13T09:48:46.161Z,17.76
2023-05-13T09:49:46.255Z,17.81
2023-05-13T09:50:46.264Z,17.83
2023-05-13T09:51:46.314Z,17.83
2023-05-13T09:52:46.377Z,17.84
2023-05-13T09:53:46.398Z,17.78
2023-05-13T09:54:46.499Z,17.79
2023-05-13T09:55:46.525Z,17.83
2023-05-13T09:56:46.554Z,17.88
2023-05-13T09:57:46.630Z,17.92
2023-05-13T09:58:46.697Z,17.89
2023-05-13T09:59:46.752Z,17.93
2023-05-13T10:00:47.118Z,17.91
2023-05-13T10:01:46.997Z,17.94
2023-05-13T10:02:46.949Z,17.86
2023-05-13T10:03:47.044Z,17.93
2023-05-13T10:04:47.025Z,17.98
2023-05-13T10:05:47.052Z,18.00
2023-05-13T10:06:47.123Z,18.04
2023-05-13T10:07:47.174Z,18.05
2023-05-13T10:08:47.219Z,17.99
2023-05-13T10:09:47.252Z,18.06
2023-05-13T10:10:47.326Z,18.08
2023-05-13T10:11:47.364Z,18.11
2023-05-13T10:12:47.421Z,18.10
2023-05-13T10:13:47.462Z,18.09
2023-05-13T10:14:47.497Z,18.14
2023-05-13T10:15:47.535Z,18.15
2023-05-13T10:16:47.624Z,18.14
2023-05-13T10:17:47.609Z,18.25
2023-05-13T10:18:47.619Z,18.28
2023-05-13T10:19:47.592Z,18.34
2023-05-13T10:20:47.645Z,18.38
2023-05-13T10:21:47.613Z,18.38
2023-05-13T10:22:47.649Z,18.38
2023-05-13T10:23:47.644Z,18.44
2023-05-13T10:24:47.666Z,18.50
2023-05-13T10:25:47.689Z,18.55
2023-05-13T10:26:47.696Z,18.62
2023-05-13T10:27:47.687Z,18.63
2023-05-13T10:28:47.712Z,18.66
2023-05-13T10:29:47.702Z,18.72
2023-05-13T10:30:47.695Z,18.76
2023-05-13T10:31:47.784Z,18.75
2023-05-13T10:32:47.704Z,18.80
2023-05-13T10:33:47.726Z,18.81
2023-05-13T10:34:47.805Z,18.76
2023-05-13T10:35:47.837Z,18.76
2023-05-13T10:36:47.880Z,18.77
2023-05-13T10:37:47.917Z,18.80
2023-05-13T10:38:47.971Z,18.83
2023-05-13T10:39:48.051Z,18.79
2023-05-13T10:40:48.103Z,18.85
2023-05-13T10:41:48.101Z,18.89
2023-05-13T10:42:48.127Z,18.86
2023-05-13T10:43:48.177Z,18.78
2023-05-13T10:44:48.246Z,18.84
2023-05-13T10:45:48.336Z,18.83
2023-05-13T10:46:48.410Z,18.84
2023-05-13T10:47:48.483Z,18.88
2023-05-13T10:48:48.482Z,18.85
2023-05-13T10:49:48.535Z,18.85
2023-05-13T10:50:48.581Z,18.93
2023-05-13T10:51:48.646Z,18.98
2023-05-13T10:52:48.675Z,18.92
2023-05-13T10:53:48.693Z,18.83
2023-05-13T10:54:48.747Z,18.87
2023-05-13T10:55:48.771Z,18.90
2023-05-13T10:56:48.832Z,18.92
2023-05-13T10:57:48.854Z,18.93
2023-05-13T10:58:48.896Z,19.00
2023-05-13T10:59:48.933Z,18.96
2023-05-13T11:00:48.980Z,18.93
2023-05-13T11:01:49.095Z,18.97
2023-05-13T11:02:49.075Z,18.95
2023-05-13T11:03:49.132Z,18.97
2023-05-13T11:04:49.035Z,19.00
2023-05-13T11:05:49.079Z,18.93
2023-05-13T11:06:49.129Z,18.97
2023-05-13T11:07:49.171Z,19.05
2023-05-13T11:08:49.209Z,19.11
2023-05-13T11:09:49.288Z,19.13
2023-05-13T11:10:49.331Z,19.16
2023-05-13T11:11:49.387Z,19.22
2023-05-13T11:12:49.452Z,19.24
2023-05-13T11:13:49.528Z,19.26
2023-05-13T11:14:49.554Z,19.27
2023-05-13T11:15:49.673Z,19.25
2023-05-13T11:16:49.689Z,19.27
2023-05-13T11:17:49.710Z,19.27
2023-05-13T11:18:49.802Z,19.28
2023-05-13T11:19:49.831Z,19.24
2023-05-13T11:20:52.621Z,19.17
2023-05-13T11:21:49.878Z,19.20
2023-05-13T11:22:49.858Z,19.25
2023-05-13T11:23:49.852Z,19.27
2023-05-13T11:24:49.862Z,19.30
2023-05-13T11:25:49.837Z,19.33
2023-05-13T11:26:49.867Z,19.37
2023-05-13T11:27:49.819Z,19.38
2023-05-13T11:28:49.813Z,19.41
2023-05-13T11:29:49.830Z,19.44
2023-05-13T11:30:49.882Z,19.48
2023-05-13T11:31:49.851Z,19.52
2023-05-13T11:32:49.855Z,19.58
2023-05-13T11:33:49.795Z,19.56
2023-05-13T11:34:49.788Z,19.58
2023-05-13T11:35:49.796Z,19.59
2023-05-13T11:36:49.882Z,19.66
2023-05-13T11:37:49.771Z,19.73
2023-05-13T11:38:49.768Z,19.79
2023-05-13T11:39:49.742Z,19.77
2023-05-13T11:40:49.751Z,19.80
2023-05-13T11:41:49.732Z,19.83
2023-05-13T11:42:49.720Z,19.79
2023-05-13T11:43:49.717Z,19.82
2023-05-13T11:44:49.721Z,19.79
2023-05-13T11:45:49.762Z,19.82
2023-05-13T11:46:49.716Z,19.94
2023-05-13T11:47:49.755Z,19.98
2023-05-13T11:48:49.682Z,20.08
2023-05-13T11:49:49.672Z,20.13
2023-05-13T11:50:49.715Z,20.09
2023-05-13T11:51:49.700Z,20.01
2023-05-13T11:52:49.651Z,20.06
2023-05-13T11:53:49.688Z,20.13
2023-05-13T11:54:49.680Z,20.16
2023-05-13T11:55:49.692Z,20.23
2023-05-13T11:56:49.627Z,20.23
2023-05-13T11:57:49.677Z,20.19
2023-05-13T11:58:49.631Z,20.10
2023-05-13T11:59:49.610Z,20.04
2023-05-13T12:00:49.612Z,20.09
2023-05-13T12:01:49.650Z,20.12
2023-05-13T12:02:49.756Z,20.10
2023-05-13T12:03:49.580Z,20.03
2023-05-13T12:04:49.615Z,20.05
2023-05-13T12:05:49.611Z,20.05
2023-05-13T12:06:49.576Z,20.07
2023-05-13T12:07:49.571Z,20.03
2023-05-13T12:08:49.564Z,19.96
2023-05-13T12:09:49.561Z,19.82
2023-05-13T12:10:49.552Z,19.90
2023-05-13T12:11:49.551Z,19.95
2023-05-13T12:12:49.595Z,19.96
2023-05-13T12:13:49.649Z,19.96
2023-05-13T12:14:49.688Z,19.98
2023-05-13T12:15:49.816Z,19.91
2023-05-13T12:16:49.809Z,19.93
2023-05-13T12:17:49.966Z,19.87
2023-05-13T12:18:49.968Z,19.90
2023-05-13T12:19:49.969Z,19.91
2023-05-13T12:20:50.036Z,19.97
2023-05-13T12:21:50.053Z,19.73
2023-05-13T12:22:50.124Z,19.70
2023-05-13T12:23:50.249Z,19.83
2023-05-13T12:24:50.235Z,19.91
2023-05-13T12:25:50.287Z,20.01
2023-05-13T12:26:50.308Z,20.10
2023-05-13T12:27:50.329Z,20.14
2023-05-13T12:28:50.379Z,20.24
2023-05-13T12:29:50.385Z,20.31
2023-05-13T12:30:50.458Z,20.26
2023-05-13T12:31:50.523Z,20.37
2023-05-13T12:32:50.515Z,20.46
2023-05-13T12:33:50.473Z,20.41
2023-05-13T12:34:50.505Z,20.38
2023-05-13T12:35:50.510Z,20.30
2023-05-13T12:36:50.563Z,20.23
2023-05-13T12:37:50.560Z,20.26
2023-05-13T12:38:50.591Z,20.36
2023-05-13T12:39:50.590Z,20.37
2023-05-13T12:40:50.659Z,20.41
2023-05-13T12:41:50.666Z,20.34
2023-05-13T12:42:50.675Z,20.23
2023-05-13T12:43:50.726Z,20.25
2023-05-13T12:44:50.773Z,20.35
2023-05-13T12:45:50.807Z,20.35
2023-05-13T12:46:50.850Z,20.28
2023-05-13T12:47:50.937Z,20.32
2023-05-13T12:48:50.876Z,20.39
2023-05-13T12:49:50.908Z,20.41
2023-05-13T12:50:50.921Z,20.43
2023-05-13T12:51:50.932Z,20.54
2023-05-13T12:52:50.954Z,20.56